createdAt,value
2023-05-20T00:01:22.712Z,13.17
2023-05-20T00:03:22.947Z,13.06
2023-05-20T00:05:22.712Z,13.17
2023-05-20T00:07:22.696Z,13.17
2023-05-20T00:08:22.757Z,13.17
2023-05-20T00:09:22.718Z,13.06
2023-05-20T00:10:22.788Z,13.17
2023-05-20T00:12:22.702Z,13.17
2023-05-20T00:13:22.710Z,13.06
2023-05-20T00:14:22.773Z,13.06
2023-05-20T00:16:22.737Z,13.17
2023-05-20T00:17:22.719Z,13.06
2023-05-20T00:18:22.726Z,13.17
2023-05-20T00:19:22.855Z,13.17
2023-05-20T00:20:22.698Z,12.56
2023-05-20T00:21:22.745Z,13.06
2023-05-20T00:23:22.713Z,13.06
2023-05-20T00:24:22.712Z,12.89
2023-05-20T00:25:22.718Z,13.17
2023-05-20T00:27:22.733Z,13.17
2023-05-20T00:28:22.716Z,13.17
2023-05-20T00:29:22.747Z,13.06
2023-05-20T00:31:22.736Z,13.17
2023-05-20T00:33:22.753Z,12.89
2023-05-20T00:34:22.768Z,12.89
2023-05-20T00:36:22.717Z,12.72
2023-05-20T00:37:22.738Z,12.72
2023-05-20T00:38:22.700Z,12.72
2023-05-20T00:39:22.714Z,12.28
2023-05-20T00:41:22.715Z,12.44
2023-05-20T00:42:22.701Z,12.72
2023-05-20T00:43:22.737Z,12.44
2023-05-20T00:44:22.726Z,12.72
2023-05-20T00:46:22.728Z,12.44
2023-05-20T00:47:22.726Z,12.28
2023-05-20T00:48:22.708Z,11.94
2023-05-20T00:49:22.728Z,11.94
2023-05-20T00:50:22.717Z,11.94
2023-05-20T00:51:22.718Z,12.28
2023-05-20T00:52:22.712Z,11.94
2023-05-20T00:53:22.753Z,12.11
2023-05-20T00:55:22.838Z,11.94
2023-05-20T00:57:22.719Z,11.83
2023-05-20T00:58:22.724Z,11.94
2023-05-20T00:59:22.718Z,11.83
2023-05-20T01:00:22.733Z,11.83
2023-05-20T01:02:22.828Z,12.11
2023-05-20T01:03:22.842Z,12.28
2023-05-20T01:05:22.726Z,11.83
2023-05-20T01:07:22.724Z,11.83
2023-05-20T01:08:22.725Z,11.72
2023-05-20T01:09:22.801Z,11.72
2023-05-20T01:10:22.828Z,11.28
2023-05-20T01:12:22.726Z,11.28
2023-05-20T01:14:22.720Z,11.44
2023-05-20T01:15:22.722Z,11.28
2023-05-20T01:16:22.757Z,11.61
2023-05-20T01:17:22.734Z,11.44
2023-05-20T01:18:22.715Z,11.72
2023-05-20T01:19:22.852Z,11.61
2023-05-20T01:20:22.725Z,11.61
2023-05-20T01:21:22.736Z,11.44
2023-05-20T01:22:22.737Z,11.44
2023-05-20T01:24:22.724Z,11.44
2023-05-20T01:25:22.812Z,11.44
2023-05-20T01:27:22.772Z,11.44
2023-05-20T01:29:22.737Z,11.44
2023-05-20T01:30:22.744Z,11.44
2023-05-20T01:31:22.800Z,11.44
2023-05-20T01:32:22.731Z,11.44
2023-05-20T01:33:22.768Z,11.44
2023-05-20T01:34:22.752Z,11.28
2023-05-20T01:35:22.760Z,11.44
2023-05-20T01:36:22.727Z,11.28
2023-05-20T01:37:22.741Z,11.28
2023-05-20T01:38:22.771Z,11
2023-05-20T01:40:22.758Z,11.44
2023-05-20T01:41:22.757Z,11.44
2023-05-20T01:42:22.730Z,11
2023-05-20T01:43:22.746Z,11.44
2023-05-20T01:44:22.762Z,11.11
2023-05-20T01:45:22.747Z,10.56
2023-05-20T01:46:22.799Z,9.78
2023-05-20T01:47:22.894Z,10.11
2023-05-20T01:49:22.770Z,10.22
2023-05-20T01:50:22.756Z,10.22
2023-05-20T01:51:22.759Z,10.22
2023-05-20T01:52:22.813Z,10.22
2023-05-20T01:53:22.742Z,10.22
2023-05-20T01:54:22.764Z,10.22
2023-05-20T01:56:22.752Z,10.22
2023-05-20T01:57:22.900Z,10.11
2023-05-20T01:59:22.756Z,10.56
2023-05-20T02:00:22.767Z,10.39
2023-05-20T02:02:22.845Z,10.22
2023-05-20T02:03:22.819Z,10.39
2023-05-20T02:05:22.772Z,10.56
2023-05-20T02:06:22.765Z,10.83
2023-05-20T02:07:22.763Z,10.56
2023-05-20T02:08:22.791Z,10.83
2023-05-20T02:10:22.754Z,10.67
2023-05-20T02:11:22.758Z,11
2023-05-20T02:12:22.776Z,11
2023-05-20T02:13:22.792Z,11
2023-05-20T02:14:22.760Z,10.83
2023-05-20T02:15:22.755Z,10.56
2023-05-20T02:16:22.846Z,10.67
2023-05-20T02:17:22.806Z,10.67
2023-05-20T02:18:22.762Z,10.39
2023-05-20T02:19:22.787Z,10.56
2023-05-20T02:20:22.776Z,11
2023-05-20T02:21:22.791Z,11
2023-05-20T02:22:22.774Z,11
2023-05-20T02:23:22.777Z,10.39
2023-05-20T02:24:22.769Z,10.56
2023-05-20T02:25:22.777Z,10.56
2023-05-20T02:26:22.787Z,10.56
2023-05-20T02:27:22.785Z,10.56
2023-05-20T02:29:22.947Z,10.56
2023-05-20T02:30:22.771Z,10.11
2023-05-20T02:31:22.776Z,10.56
2023-05-20T02:32:22.784Z,10.56
2023-05-20T02:33:22.846Z,10.22
2023-05-20T02:34:22.843Z,10.22
2023-05-20T02:35:22.780Z,10.22
2023-05-20T02:37:22.790Z,10.22
2023-05-20T02:38:22.779Z,10.22
2023-05-20T02:39:22.823Z,10.39
2023-05-20T02:41:22.796Z,9.78
2023-05-20T02:43:22.791Z,9.94
2023-05-20T02:44:22.793Z,10.11
2023-05-20T02:45:22.816Z,9.94
2023-05-20T02:47:22.833Z,10.22
2023-05-20T02:48:22.790Z,10.11
2023-05-20T02:49:22.802Z,10.39
2023-05-20T02:50:22.792Z,9.94
2023-05-20T02:51:22.789Z,10.22
2023-05-20T02:52:22.786Z,9.94
2023-05-20T02:53:22.811Z,10.11
2023-05-20T02:55:22.905Z,10.39
2023-05-20T02:56:22.794Z,10.22
2023-05-20T02:57:22.797Z,10.11
2023-05-20T02:58:22.790Z,10.11
2023-05-20T02:59:22.858Z,10.39
2023-05-20T03:00:22.795Z,10.11
2023-05-20T03:01:22.862Z,10.39
2023-05-20T03:03:22.815Z,9.94
2023-05-20T03:04:22.805Z,9.94
2023-05-20T03:05:22.813Z,9.94
2023-05-20T03:06:22.829Z,9.94
2023-05-20T03:07:22.808Z,10.11
2023-05-20T03:08:22.820Z,10.11
2023-05-20T03:09:22.795Z,10.11
2023-05-20T03:10:22.799Z,10.22
2023-05-20T03:11:22.895Z,10.11
2023-05-20T03:13:22.812Z,9.94
2023-05-20T03:14:22.824Z,10.11
2023-05-20T03:16:22.826Z,9.67
2023-05-20T03:17:22.880Z,9.94
2023-05-20T03:19:22.827Z,9.67
2023-05-20T03:20:22.807Z,9.67
2023-05-20T03:21:22.807Z,9.5
2023-05-20T03:22:22.811Z,9.5
2023-05-20T03:23:22.814Z,9.5
2023-05-20T03:25:22.821Z,10.11
2023-05-20T03:26:22.813Z,9.78
2023-05-20T03:27:22.821Z,9.67
2023-05-20T03:29:22.806Z,9.67
2023-05-20T03:30:22.814Z,9.67
2023-05-20T03:31:22.898Z,9.22
2023-05-20T03:32:22.833Z,9.5
2023-05-20T03:33:23.025Z,9.67
2023-05-20T03:35:22.816Z,9.67
2023-05-20T03:36:22.824Z,9.5
2023-05-20T03:38:22.822Z,9.67
2023-05-20T03:39:22.832Z,9.06
2023-05-20T03:40:22.821Z,9.39
2023-05-20T03:42:22.843Z,9.67
2023-05-20T03:43:22.856Z,9.39
2023-05-20T03:45:22.811Z,9.67
2023-05-20T03:46:22.845Z,9.5
2023-05-20T03:48:22.848Z,9.39
2023-05-20T03:49:22.848Z,9.06
2023-05-20T03:51:22.822Z,9.67
2023-05-20T03:52:22.832Z,9.39
2023-05-20T03:53:22.858Z,9.67
2023-05-20T03:54:22.814Z,9.67
2023-05-20T03:55:22.848Z,8.94
2023-05-20T03:57:22.843Z,8.94
2023-05-20T03:58:22.829Z,9.22
2023-05-20T04:00:22.880Z,9.06
2023-05-20T04:01:22.829Z,9.39
2023-05-20T04:02:23.007Z,9.39
2023-05-20T04:04:22.888Z,9.67
2023-05-20T04:05:22.868Z,9.67
2023-05-20T04:07:22.826Z,9.78
2023-05-20T04:08:22.937Z,9.67
2023-05-20T04:10:22.891Z,9.67
2023-05-20T04:11:22.826Z,9.78
2023-05-20T04:12:22.842Z,9.94
2023-05-20T04:13:22.824Z,9.94
2023-05-20T04:14:22.843Z,10.22
2023-05-20T04:16:22.929Z,10.11
2023-05-20T04:18:22.847Z,9.94
2023-05-20T04:19:22.998Z,10.11
2023-05-20T04:20:22.976Z,10.11
2023-05-20T04:22:22.838Z,10.11
2023-05-20T04:23:22.854Z,10.11
2023-05-20T04:24:22.853Z,10.11
2023-05-20T04:26:22.844Z,10.22
2023-05-20T04:27:22.968Z,10.39
2023-05-20T04:29:22.849Z,10.22
2023-05-20T04:30:22.853Z,10.56
2023-05-20T04:31:22.912Z,10.22
2023-05-20T04:32:22.880Z,10.39
2023-05-20T04:33:22.867Z,10.22
2023-05-20T04:34:22.858Z,10.22
2023-05-20T04:35:22.870Z,10.22
2023-05-20T04:37:22.885Z,10.56
2023-05-20T04:39:22.855Z,10.56
2023-05-20T04:40:22.866Z,10.56
2023-05-20T04:41:22.859Z,11
2023-05-20T04:42:22.971Z,10.83
2023-05-20T04:44:22.859Z,11
2023-05-20T04:45:22.852Z,11
2023-05-20T04:46:22.900Z,10.83
2023-05-20T04:47:22.848Z,11
2023-05-20T04:48:22.856Z,11.11
2023-05-20T04:49:22.876Z,11.11
2023-05-20T04:50:22.853Z,11.61
2023-05-20T04:51:22.874Z,11.44
2023-05-20T04:52:22.870Z,12.44
2023-05-20T04:53:22.919Z,13.33
2023-05-20T04:54:22.941Z,13.94
2023-05-20T04:56:22.879Z,15.22
2023-05-20T04:58:22.894Z,15.17
2023-05-20T04:59:22.868Z,15
2023-05-20T05:00:22.881Z,15
2023-05-20T05:01:22.888Z,15
2023-05-20T05:02:22.867Z,14.28
2023-05-20T05:03:22.875Z,15
2023-05-20T05:05:22.878Z,14.28
2023-05-20T05:06:22.915Z,15.22
2023-05-20T05:08:22.869Z,16.39
2023-05-20T05:09:22.908Z,16.22
2023-05-20T05:10:22.862Z,15.89
2023-05-20T05:11:22.870Z,15.89
2023-05-20T05:12:22.875Z,15.72
2023-05-20T05:13:22.935Z,15
2023-05-20T05:14:22.969Z,13.78
2023-05-20T05:15:22.872Z,13.67
2023-05-20T05:16:22.983Z,12.56
2023-05-20T05:17:22.869Z,12.11
2023-05-20T05:18:22.872Z,12.44
2023-05-20T05:20:22.882Z,11.83
2023-05-20T05:21:22.904Z,11.94
2023-05-20T05:22:22.933Z,12.11
2023-05-20T05:24:22.888Z,12.11
2023-05-20T05:25:22.906Z,11.94
2023-05-20T05:27:22.898Z,11.61
2023-05-20T05:29:22.877Z,12.56
2023-05-20T05:31:22.898Z,12.44
2023-05-20T05:32:23.062Z,12.56
2023-05-20T05:33:23.099Z,12.72
2023-05-20T05:34:23.047Z,12.72
2023-05-20T05:36:22.883Z,13.06
2023-05-20T05:37:22.904Z,13.17
2023-05-20T05:39:22.913Z,13.06
2023-05-20T05:40:22.901Z,13.67
2023-05-20T05:41:22.911Z,13.33
2023-05-20T05:42:22.940Z,13.67
2023-05-20T05:43:22.893Z,13.67
2023-05-20T05:44:22.921Z,13.5
2023-05-20T05:45:22.885Z,13.94
2023-05-20T05:46:22.961Z,15
2023-05-20T05:48:22.991Z,14.28
2023-05-20T05:50:22.892Z,13.67
2023-05-20T05:51:22.904Z,13.67
2023-05-20T05:52:22.905Z,13.94
2023-05-20T05:53:22.899Z,14.28
2023-05-20T05:54:22.928Z,14.56
2023-05-20T05:55:22.927Z,14.28
2023-05-20T05:56:22.896Z,14.06
2023-05-20T05:57:22.941Z,14.89
2023-05-20T05:59:22.910Z,16.67
2023-05-20T06:00:22.912Z,16.67
2023-05-20T06:01:22.979Z,17.94
2023-05-20T06:02:23.081Z,17.61
2023-05-20T06:03:23.092Z,17.78
2023-05-20T06:05:22.903Z,18.28
2023-05-20T06:06:22.936Z,18.44
2023-05-20T06:07:22.900Z,19.28
2023-05-20T06:08:22.920Z,19.06
2023-05-20T06:09:22.963Z,18.78
2023-05-20T06:10:22.987Z,18.56
2023-05-20T06:11:22.900Z,17.44
2023-05-20T06:12:22.928Z,17.61
2023-05-20T06:13:22.937Z,18.11
2023-05-20T06:14:22.968Z,18.11
2023-05-20T06:15:22.903Z,17.44
2023-05-20T06:16:23.063Z,16.39
2023-05-20T06:18:22.933Z,17.61
2023-05-20T06:19:22.925Z,17.17
2023-05-20T06:20:22.990Z,17
2023-05-20T06:21:22.919Z,16.22
2023-05-20T06:22:22.930Z,16.06
2023-05-20T06:23:22.924Z,16.22
2023-05-20T06:25:22.983Z,15.72
2023-05-20T06:26:22.923Z,15.89
2023-05-20T06:27:22.932Z,15.17
2023-05-20T06:29:22.945Z,15.39
2023-05-20T06:30:22.927Z,15.39
2023-05-20T06:31:23.107Z,15.22
2023-05-20T06:33:22.942Z,17.44
2023-05-20T06:35:22.987Z,18.44
2023-05-20T06:37:22.936Z,15.89
2023-05-20T06:38:22.951Z,15.89
2023-05-20T06:40:22.946Z,15
2023-05-20T06:42:22.960Z,15.17
2023-05-20T06:43:22.954Z,15.72
2023-05-20T06:45:23.082Z,16.22
2023-05-20T06:46:22.973Z,17
2023-05-20T06:47:23.006Z,17.17
2023-05-20T06:48:22.988Z,16.39
2023-05-20T06:50:22.961Z,16.5
2023-05-20T06:51:22.982Z,17.61
2023-05-20T06:52:22.945Z,17.94
2023-05-20T06:53:22.943Z,18.78
2023-05-20T06:54:22.942Z,18.89
2023-05-20T06:55:22.947Z,19.39
2023-05-20T06:57:23.013Z,19.06
2023-05-20T06:59:22.946Z,19.72
2023-05-20T07:00:22.975Z,18.89
2023-05-20T07:01:23.059Z,18.89
2023-05-20T07:02:22.973Z,18.78
2023-05-20T07:03:23.009Z,18.89
2023-05-20T07:05:22.945Z,20.72
2023-05-20T07:06:22.970Z,21.17
2023-05-20T07:07:22.943Z,21.17
2023-05-20T07:08:22.958Z,20.22
2023-05-20T07:10:22.962Z,19.39
2023-05-20T07:11:22.960Z,19.28
2023-05-20T07:12:23.047Z,20.22
2023-05-20T07:14:22.961Z,20.22
2023-05-20T07:15:23.006Z,19.94
2023-05-20T07:17:23.040Z,20.22
2023-05-20T07:19:23.030Z,20.72
2023-05-20T07:20:23.110Z,20.83
2023-05-20T07:22:22.969Z,21.17
2023-05-20T07:23:22.960Z,21.72
2023-05-20T07:24:22.983Z,21.17
2023-05-20T07:25:22.971Z,21.39
2023-05-20T07:26:22.964Z,22.56
2023-05-20T07:27:23.001Z,22.56
2023-05-20T07:29:22.991Z,22.06
2023-05-20T07:31:22.999Z,21.5
2023-05-20T07:32:23.020Z,21.17
2023-05-20T07:33:22.998Z,21.39
2023-05-20T07:35:22.983Z,21.17
2023-05-20T07:36:22.992Z,20.72
2023-05-20T07:37:22.967Z,20
2023-05-20T07:38:22.975Z,20.06
2023-05-20T07:39:22.991Z,20.06
2023-05-20T07:40:23.010Z,20.22
2023-05-20T07:41:22.994Z,20.72
2023-05-20T07:42:22.974Z,20.78
2023-05-20T07:43:22.981Z,20.83
2023-05-20T07:45:22.977Z,21
2023-05-20T07:47:22.990Z,20.83
2023-05-20T07:48:23.022Z,20.72
2023-05-20T07:49:23.023Z,20.56
2023-05-20T07:51:22.981Z,19.94
2023-05-20T07:53:22.991Z,19.78
2023-05-20T07:54:22.985Z,19.94
2023-05-20T07:55:23.014Z,20.22
2023-05-20T07:56:22.982Z,20.72
2023-05-20T07:57:22.982Z,20.33
2023-05-20T07:58:23.016Z,20.33
2023-05-20T07:59:23.002Z,20.11
2023-05-20T08:01:23.024Z,20.11
2023-05-20T08:02:23.042Z,19.94
2023-05-20T08:03:23.084Z,20.22
2023-05-20T08:04:23.024Z,19.56
2023-05-20T08:05:23.044Z,19.44
2023-05-20T08:07:22.998Z,19.44
2023-05-20T08:08:23.006Z,19.56
2023-05-20T08:09:23.014Z,20.22
2023-05-20T08:10:23.061Z,20.56
2023-05-20T08:12:23.000Z,20.83
2023-05-20T08:13:23.000Z,20.83
2023-05-20T08:14:23.001Z,20.72
2023-05-20T08:15:22.992Z,20.56
2023-05-20T08:16:23.111Z,20.22
2023-05-20T08:17:23.020Z,20.33
2023-05-20T08:18:22.990Z,20.33
2023-05-20T08:20:23.143Z,19.94
2023-05-20T08:21:23.020Z,20.22
2023-05-20T08:22:23.000Z,19.94
2023-05-20T08:23:23.017Z,19.94
2023-05-20T08:25:23.014Z,19.44
2023-05-20T08:27:23.017Z,19.44
2023-05-20T08:29:23.020Z,19.94
2023-05-20T08:30:23.010Z,20.22
2023-05-20T08:32:23.009Z,21
2023-05-20T08:33:23.097Z,21.39
2023-05-20T08:35:24.684Z,20.83
2023-05-20T08:36:23.022Z,20.83
2023-05-20T08:37:23.031Z,20.72
2023-05-20T08:39:23.068Z,20.33
2023-05-20T08:40:23.015Z,21.22
2023-05-20T08:41:23.022Z,21
2023-05-20T08:42:23.018Z,20.72
2023-05-20T08:43:23.015Z,20.56
2023-05-20T08:44:23.183Z,20.22
2023-05-20T08:45:23.014Z,20.33
2023-05-20T08:46:23.061Z,20.83
2023-05-20T08:47:23.030Z,21
2023-05-20T08:48:23.015Z,21.39
2023-05-20T08:49:23.026Z,21.89
2023-05-20T08:50:23.204Z,22.39
2023-05-20T08:52:23.028Z,22.22
2023-05-20T08:53:23.072Z,22.22
2023-05-20T08:55:23.043Z,21.39
2023-05-20T08:56:23.020Z,21.72
2023-05-20T08:57:23.056Z,21.89
2023-05-20T08:58:23.025Z,21.72
2023-05-20T08:59:23.025Z,21.22
2023-05-20T09:00:23.053Z,20.33
2023-05-20T09:02:23.086Z,21.39
2023-05-20T09:03:23.028Z,21.89
2023-05-20T09:04:23.067Z,21.39
2023-05-20T09:05:23.038Z,21.56
2023-05-20T09:06:23.021Z,22.06
2023-05-20T09:07:23.042Z,21.56
2023-05-20T09:08:23.085Z,21.39
2023-05-20T09:09:23.060Z,21.22
2023-05-20T09:10:23.039Z,20.83
2023-05-20T09:11:23.069Z,21.44
2023-05-20T09:13:23.943Z,21.72
2023-05-20T09:14:23.032Z,21.39
2023-05-20T09:15:23.054Z,21.56
2023-05-20T09:17:23.088Z,21.56
2023-05-20T09:18:23.065Z,21.22
2023-05-20T09:19:24.399Z,21.56
2023-05-20T09:20:23.048Z,21.56
2023-05-20T09:21:23.041Z,22.22
2023-05-20T09:23:23.048Z,22.61
2023-05-20T09:24:23.057Z,22.61
2023-05-20T09:25:23.935Z,22.06
2023-05-20T09:27:23.051Z,21.56
2023-05-20T09:28:23.054Z,22.39
2023-05-20T09:29:23.052Z,22.06
2023-05-20T09:30:23.052Z,21.89
2023-05-20T09:32:23.074Z,21.56
2023-05-20T09:33:23.061Z,21.56
2023-05-20T09:34:23.051Z,21.22
2023-05-20T09:35:23.082Z,21.06
2023-05-20T09:37:23.066Z,21.56
2023-05-20T09:38:23.063Z,21.56
2023-05-20T09:39:23.055Z,21.72
2023-05-20T09:40:23.102Z,22.06
2023-05-20T09:41:23.081Z,21.89
2023-05-20T09:42:23.141Z,22.06
2023-05-20T09:44:23.051Z,22.78
2023-05-20T09:45:23.098Z,22.39
2023-05-20T09:46:23.164Z,22.61
2023-05-20T09:47:23.102Z,22.61
2023-05-20T09:48:23.076Z,21.39
2023-05-20T09:49:23.073Z,21.56
2023-05-20T09:51:23.064Z,22.22
2023-05-20T09:52:23.067Z,22.39
2023-05-20T09:53:23.080Z,22.06
2023-05-20T09:54:23.061Z,22.39
2023-05-20T09:55:23.136Z,22.61
2023-05-20T09:57:23.096Z,22.06
2023-05-20T09:59:23.099Z,22.39
2023-05-20T10:01:23.101Z,21.56
2023-05-20T10:02:23.335Z,21.56
2023-05-20T10:03:23.316Z,21.72
2023-05-20T10:04:23.086Z,22.22
2023-05-20T10:05:23.073Z,22.94
2023-05-20T10:06:23.082Z,21.89
2023-05-20T10:07:34.213Z,22.06
2023-05-20T10:08:23.083Z,21.89
2023-05-20T10:09:23.079Z,21.56
2023-05-20T10:10:23.143Z,21.39
2023-05-20T10:12:23.087Z,22.06
2023-05-20T10:13:23.114Z,21.89
2023-05-20T10:15:23.114Z,22.06
2023-05-20T10:17:23.156Z,23.28
2023-05-20T10:19:23.214Z,22.61
2023-05-20T10:20:23.088Z,22.61
2023-05-20T10:22:23.102Z,22.39
2023-05-20T10:23:23.105Z,21.56
2023-05-20T10:24:23.087Z,22.22
2023-05-20T10:25:23.092Z,22.39
2023-05-20T10:26:23.092Z,22.39
2023-05-20T10:28:23.085Z,22.61
2023-05-20T10:29:23.128Z,22.94
2023-05-20T10:31:23.096Z,23.28
2023-05-20T10:32:23.165Z,22.94
2023-05-20T10:33:23.097Z,23.28
2023-05-20T10:35:23.109Z,23.28
2023-05-20T10:37:23.088Z,22.78
2023-05-20T10:38:23.093Z,22.78
2023-05-20T10:39:23.087Z,23.11
2023-05-20T10:41:23.100Z,22.22
2023-05-20T10:42:23.111Z,22.78
2023-05-20T10:44:23.097Z,22.61
2023-05-20T10:45:23.150Z,22.61
2023-05-20T10:48:23.204Z,22
2023-05-20T10:49:27.068Z,21.94
2023-05-20T10:50:23.083Z,21.94
2023-05-20T10:51:23.112Z,22.06
2023-05-20T10:52:23.097Z,22.39
2023-05-20T10:53:33.192Z,22.22
2023-05-20T10:55:23.091Z,22.22
2023-05-20T10:56:23.109Z,22.61
2023-05-20T10:57:23.122Z,23.28
2023-05-20T10:59:23.115Z,23.11
2023-05-20T11:01:23.149Z,23.11
2023-05-20T11:03:23.373Z,22.94
2023-05-20T11:04:23.096Z,23.28
2023-05-20T11:05:23.100Z,23.28
2023-05-20T11:06:23.111Z,22.78
2023-05-20T11:08:28.783Z,23.28
2023-05-20T11:09:23.146Z,22.61
2023-05-20T11:10:23.098Z,22.06
2023-05-20T11:11:23.112Z,22.78
2023-05-20T11:12:23.140Z,22.78
2023-05-20T11:13:23.192Z,22.61
2023-05-20T11:15:23.106Z,22.78
2023-05-20T11:17:23.137Z,22.61
2023-05-20T11:18:23.098Z,22.39
2023-05-20T11:19:23.189Z,22.06
2023-05-20T11:21:23.125Z,22.22
2023-05-20T11:23:23.120Z,21.72
2023-05-20T11:24:23.109Z,21.72
2023-05-20T11:25:23.136Z,21.72
2023-05-20T11:26:23.116Z,21.94
2023-05-20T11:27:23.107Z,21.72
2023-05-20T11:28:23.122Z,21.72
2023-05-20T11:29:23.116Z,21.72
2023-05-20T11:30:23.108Z,21.72
2023-05-20T11:31:23.138Z,22.22
2023-05-20T11:32:23.311Z,22.06
2023-05-20T11:34:25.747Z,22.78
2023-05-20T11:35:23.115Z,22.61
2023-05-20T11:36:27.713Z,22.39
2023-05-20T11:38:23.139Z,22.94
2023-05-20T11:40:23.121Z,22.22
2023-05-20T11:42:23.122Z,22.22
2023-05-20T11:43:23.151Z,22.61
2023-05-20T11:44:23.126Z,22.78
2023-05-20T11:46:23.154Z,23.11
2023-05-20T11:47:23.122Z,22.94
2023-05-20T11:48:23.136Z,23.11
2023-05-20T11:49:23.145Z,23.28
2023-05-20T11:50:23.123Z,23.28
2023-05-20T11:51:23.126Z,22.94
2023-05-20T11:52:23.119Z,22.78
2023-05-20T11:53:23.119Z,23.44
2023-05-20T11:54:23.179Z,23.83
2023-05-20T11:55:23.119Z,23.11
2023-05-20T11:56:23.223Z,23.28
2023-05-20T11:58:23.171Z,23.83
2023-05-20T11:59:23.146Z,23.83
2023-05-20T12:00:23.125Z,23.83
2023-05-20T12:01:23.530Z,23.28
2023-05-20T12:02:23.184Z,22.61
2023-05-20T12:04:23.217Z,22.61
2023-05-20T12:05:23.159Z,23.28
2023-05-20T12:06:23.192Z,23.28
2023-05-20T12:08:23.150Z,22.78
2023-05-20T12:09:23.141Z,23.11
2023-05-20T12:10:23.149Z,22.78
2023-05-20T12:11:23.153Z,22.78
2023-05-20T12:12:23.136Z,23.11
2023-05-20T12:13:23.141Z,22.78
2023-05-20T12:14:23.139Z,22.94
2023-05-20T12:15:23.146Z,23.28
2023-05-20T12:16:23.189Z,23.83
2023-05-20T12:18:23.137Z,23.83
2023-05-20T12:19:23.155Z,23.28
2023-05-20T12:20:23.156Z,23.28
2023-05-20T12:21:23.162Z,23.44
2023-05-20T12:23:23.184Z,23.28
2023-05-20T12:25:23.149Z,23.44
2023-05-20T12:26:23.191Z,23.83
2023-05-20T12:27:23.132Z,23.83
2023-05-20T12:28:23.161Z,23.83
2023-05-20T12:29:23.156Z,23.28
2023-05-20T12:31:23.299Z,23.28
2023-05-20T12:32:23.195Z,22.94
2023-05-20T12:33:23.149Z,22.78
2023-05-20T12:34:23.152Z,23.28
2023-05-20T12:35:23.150Z,23.44
2023-05-20T12:36:23.137Z,24
2023-05-20T12:37:23.165Z,22.78
2023-05-20T12:39:23.155Z,22.06
2023-05-20T12:40:23.142Z,22.06
2023-05-20T12:41:23.154Z,22.22
2023-05-20T12:42:23.160Z,22.22
2023-05-20T12:44:23.155Z,22.22
2023-05-20T12:45:23.166Z,22.78
2023-05-20T12:46:23.175Z,22.94
2023-05-20T12:47:23.200Z,22.94
2023-05-20T12:48:23.150Z,22.94
2023-05-20T12:50:23.151Z,23.11
2023-05-20T12:51:23.170Z,22.39
2023-05-20T12:53:23.187Z,22.94
2023-05-20T12:55:23.154Z,22.78
2023-05-20T12:56:23.203Z,22.61
2023-05-20T12:58:23.165Z,23.11
2023-05-20T12:59:23.157Z,23.67
2023-05-20T13:00:23.172Z,23.28
2023-05-20T13:01:23.195Z,22.78
2023-05-20T13:02:23.208Z,22.94
2023-05-20T13:03:23.158Z,23.28
2023-05-20T13:04:23.164Z,22.78
2023-05-20T13:05:23.182Z,23.28
2023-05-20T13:07:23.150Z,23.28
2023-05-20T13:08:23.182Z,23.67
2023-05-20T13:09:23.197Z,23.83
2023-05-20T13:10:23.160Z,23.28
2023-05-20T13:11:23.163Z,23.28
2023-05-20T13:12:23.166Z,22.78
2023-05-20T13:14:23.167Z,23.28
2023-05-20T13:15:23.160Z,23.28
2023-05-20T13:17:23.154Z,23.28
2023-05-20T13:18:23.167Z,23.28
2023-05-20T13:20:23.168Z,22.78
2023-05-20T13:22:23.170Z,23.28
2023-05-20T13:23:23.172Z,23.11
2023-05-20T13:24:23.176Z,23.44
2023-05-20T13:25:23.208Z,23.28
2023-05-20T13:26:23.235Z,22.94
2023-05-20T13:28:23.170Z,22.22
2023-05-20T13:29:23.170Z,22.39
2023-05-20T13:31:23.203Z,22.78
2023-05-20T13:32:23.254Z,22.78
2023-05-20T13:33:23.187Z,23.11
2023-05-20T13:35:23.181Z,23.83
2023-05-20T13:36:23.187Z,23.67
2023-05-20T13:37:23.196Z,23.83
2023-05-20T13:38:23.161Z,23.83
2023-05-20T13:39:23.161Z,24.17
2023-05-20T13:40:23.184Z,24.33
2023-05-20T13:41:23.300Z,23.83
2023-05-20T13:42:23.156Z,23.44
2023-05-20T13:43:23.156Z,23.83
2023-05-20T13:44:23.161Z,24.33
2023-05-20T13:45:23.181Z,23.67
2023-05-20T13:46:23.290Z,22.94
2023-05-20T13:48:23.214Z,23.67
2023-05-20T13:49:23.161Z,23.83
2023-05-20T13:50:23.171Z,23.44
2023-05-20T13:51:23.219Z,23.28
2023-05-20T13:53:23.171Z,24
2023-05-20T13:54:23.172Z,23.83
2023-05-20T13:55:24.682Z,23.83
2023-05-20T13:56:23.179Z,23.28
2023-05-20T13:57:23.201Z,23.28
2023-05-20T13:59:23.162Z,23.44
2023-05-20T14:00:23.164Z,23.28
2023-05-20T14:01:23.214Z,23.28
2023-05-20T14:03:23.166Z,23.67
2023-05-20T14:05:23.184Z,23.83
2023-05-20T14:06:23.175Z,24.33
2023-05-20T14:07:23.186Z,23.67
2023-05-20T14:09:23.198Z,24.5
2023-05-20T14:10:23.169Z,24.67
2023-05-20T14:11:23.168Z,24.5
2023-05-20T14:12:23.167Z,24.33
2023-05-20T14:13:23.208Z,23.83
2023-05-20T14:15:23.181Z,22.39
2023-05-20T14:16:23.308Z,22.22
2023-05-20T14:17:23.164Z,22.22
2023-05-20T14:18:23.174Z,22.22
2023-05-20T14:19:23.242Z,22.22
2023-05-20T14:20:23.184Z,22.22
2023-05-20T14:22:23.187Z,22.06
2023-05-20T14:23:23.183Z,22.06
2023-05-20T14:25:23.214Z,21.72
2023-05-20T14:26:23.190Z,21.72
2023-05-20T14:27:23.174Z,21.94
2023-05-20T14:28:23.166Z,22.06
2023-05-20T14:29:23.229Z,21.94
2023-05-20T14:31:23.222Z,21.72
2023-05-20T14:32:23.200Z,21.72
2023-05-20T14:34:23.170Z,21.56
2023-05-20T14:35:23.163Z,21.22
2023-05-20T14:36:23.183Z,21.56
2023-05-20T14:38:23.171Z,21.72
2023-05-20T14:39:23.170Z,21.22
2023-05-20T14:40:23.191Z,21.22
2023-05-20T14:42:23.198Z,21.72
2023-05-20T14:44:23.177Z,22.39
2023-05-20T14:45:23.198Z,22.22
2023-05-20T14:47:23.197Z,22.22
2023-05-20T14:49:23.164Z,21.72
2023-05-20T14:50:23.180Z,21.72
2023-05-20T14:51:23.194Z,21.22
2023-05-20T14:53:23.179Z,21.22
2023-05-20T14:54:23.177Z,21.56
2023-05-20T14:55:23.184Z,21.39
2023-05-20T14:56:23.187Z,21.39
2023-05-20T14:57:23.181Z,21.06
2023-05-20T14:58:23.185Z,21.22
2023-05-20T14:59:23.205Z,21.06
2023-05-20T15:01:23.229Z,20.39
2023-05-20T15:02:23.217Z,20.89
2023-05-20T15:03:23.282Z,21.22
2023-05-20T15:05:23.175Z,21.22
2023-05-20T15:06:23.192Z,21.22
2023-05-20T15:07:23.192Z,21.39
2023-05-20T15:09:23.175Z,21.22
2023-05-20T15:10:23.203Z,21.39
2023-05-20T15:11:23.167Z,21.22
2023-05-20T15:12:23.172Z,21.06
2023-05-20T15:13:23.188Z,21.39
2023-05-20T15:14:23.164Z,21.22
2023-05-20T15:15:23.185Z,21.22
2023-05-20T15:16:23.207Z,20.89
2023-05-20T15:17:23.332Z,20.89
2023-05-20T15:18:23.167Z,21.06
2023-05-20T15:19:23.227Z,20.78
2023-05-20T15:20:23.180Z,20.89
2023-05-20T15:21:23.198Z,20.89
2023-05-20T15:23:23.192Z,20.78
2023-05-20T15:25:23.204Z,20.39
2023-05-20T15:26:23.202Z,20.56
2023-05-20T15:28:23.188Z,20.56
2023-05-20T15:30:23.194Z,20.78
2023-05-20T15:32:23.287Z,20.78
2023-05-20T15:33:23.380Z,20.78
2023-05-20T15:35:23.180Z,20.56
2023-05-20T15:36:23.196Z,20.78
2023-05-20T15:38:23.194Z,20.78
2023-05-20T15:39:23.174Z,20.78
2023-05-20T15:40:23.190Z,20.56
2023-05-20T15:42:23.186Z,20.56
2023-05-20T15:43:23.200Z,20.28
2023-05-20T15:44:23.214Z,20.11
2023-05-20T15:46:23.211Z,20.28
2023-05-20T15:47:23.321Z,20.11
2023-05-20T15:49:23.214Z,20.11
2023-05-20T15:51:23.192Z,20.28
2023-05-20T15:52:23.281Z,20
2023-05-20T15:54:23.195Z,19.83
2023-05-20T15:55:23.182Z,20.11
2023-05-20T15:56:23.202Z,20
2023-05-20T15:57:23.188Z,19.83
2023-05-20T15:59:23.188Z,19.83
2023-05-20T16:00:23.213Z,20.11
2023-05-20T16:01:23.187Z,20
2023-05-20T16:02:23.458Z,20
2023-05-20T16:03:23.234Z,20.11
2023-05-20T16:05:23.219Z,20
2023-05-20T16:07:23.184Z,19.83
2023-05-20T16:09:23.206Z,19.61
2023-05-20T16:10:25.397Z,20
2023-05-20T16:11:23.195Z,20.11
2023-05-20T16:13:23.194Z,20
2023-05-20T16:14:23.198Z,19.61
2023-05-20T16:16:23.238Z,19.61
2023-05-20T16:17:23.293Z,19.83
2023-05-20T16:18:23.195Z,19.83
2023-05-20T16:19:23.383Z,19.61
2023-05-20T16:20:23.210Z,19.61
2023-05-20T16:21:23.237Z,19.61
2023-05-20T16:23:23.190Z,19.94
2023-05-20T16:24:23.246Z,19.83
2023-05-20T16:26:23.229Z,19.83
2023-05-20T16:28:23.198Z,19.83
2023-05-20T16:29:23.213Z,19.61
2023-05-20T16:31:23.222Z,19.61
2023-05-20T16:32:23.189Z,19.61
2023-05-20T16:33:23.205Z,19.44